Time;durP1;ratioP1;P1;durP2;ratioP2;P2;SDS_P1;SDS_P2;PMS_P1;PMS_P2;Temp;Humidity;BMP_temperature;BMP_pressure;BME280_temperature;BME280_humidity;BME280_pressure;Samples;Min_cycle;Max_cycle;Signal;HPM_P1;HPM_P2
2023/09/15 00:02:16;;;;;;;;;9.33;9.33;;;;;;;;5079881;28;45627;-81
2023/09/15 00:04:42;;;;;;;;;9.67;9.67;;;;;;;;5079882;28;45276;-81
2023/09/15 00:07:08;;;;;;;;;9.67;9.67;;;;;;;;5079460;28;45946;-81
2023/09/15 00:09:33;;;;;;;;;9.00;8.67;;;;;;;;5079543;28;45318;-81
2023/09/15 00:11:58;;;;;;;;;6.67;6.67;;;;;;;;5061580;28;45386;-81
2023/09/15 00:14:23;;;;;;;;;8.33;7.00;;;;;;;;5061219;28;46231;-81
2023/09/15 00:16:49;;;;;;;;;8.00;8.00;;;;;;;;5079566;28;46045;-81
2023/09/15 00:19:14;;;;;;;;;8.00;8.00;;;;;;;;5079597;28;45477;-82
2023/09/15 00:21:40;;;;;;;;;10.67;8.67;;;;;;;;5079530;28;45280;-81
2023/09/15 00:24:05;;;;;;;;;8.67;8.67;;;;;;;;5079553;28;45391;-81
2023/09/15 00:26:31;;;;;;;;;9.33;9.33;;;;;;;;5060944;28;48212;-81
2023/09/15 00:28:56;;;;;;;;;7.67;7.67;;;;;;;;5051615;28;45225;-81
2023/09/15 00:31:22;;;;;;;;;9.67;9.67;;;;;;;;5079242;28;45445;-81
2023/09/15 00:33:47;;;;;;;;;9.67;8.33;;;;;;;;5078783;28;45189;-81
2023/09/15 00:36:12;;;;;;;;;9.00;9.00;;;;;;;;5078450;28;46117;-82
2023/09/15 00:38:37;;;;;;;;;7.67;7.67;;;;;;;;5061102;28;45274;-81
2023/09/15 00:41:02;;;;;;;;;6.33;6.33;;;;;;;;5079653;28;45290;-82
2023/09/15 00:43:28;;;;;;;;;9.00;8.00;;;;;;;;5073697;28;45262;-81
2023/09/15 00:45:55;;;;;;;;;8.00;6.67;;;;;;;;5058957;28;45616;-81
2023/09/15 00:48:22;;;;;;;;;8.33;7.33;;;;;;;;5058207;28;45301;-82
2023/09/15 00:50:47;;;;;;;;;11.33;9.67;;;;;;;;5058142;28;45334;-82
2023/09/15 00:53:16;;;;;;;;;6.00;5.00;;;;;;;;5058788;28;45633;-81
2023/09/15 00:55:42;;;;;;;;;8.00;8.00;;;;;;;;5058798;28;46468;-81
2023/09/15 00:58:11;;;;;;;;;11.00;8.00;;;;;;;;5058679;28;45332;-82
2023/09/15 01:00:37;;;;;;;;;8.33;7.00;;;;;;;;5043800;28;45439;-81
2023/09/15 01:03:02;;;;;;;;;10.00;10.00;;;;;;;;5062166;28;45407;-81
2023/09/15 01:05:28;;;;;;;;;9.00;9.00;;;;;;;;5062103;28;46081;-81
2023/09/15 01:07:54;;;;;;;;;9.33;9.33;;;;;;;;5043826;28;45387;-81
2023/09/15 01:10:20;;;;;;;;;9.00;9.00;;;;;;;;5044196;28;45366;-81
2023/09/15 01:12:46;;;;;;;;;10.33;10.00;;;;;;;;5062127;28;45387;-81
2023/09/15 01:15:11;;;;;;;;;7.33;7.33;;;;;;;;5061954;28;46262;-81
2023/09/15 01:17:46;;;;;;;;;7.67;7.67;;;;;;;;5043927;28;45245;-81
2023/09/15 01:20:31;;;;;;;;;7.67;7.67;;;;;;;;5061994;28;45348;-81
2023/09/15 01:22:56;;;;;;;;;9.67;9.67;;;;;;;;5061762;28;45361;-81
2023/09/15 01:25:40;;;;;;;;;9.00;7.00;;;;;;;;5043540;28;47034;-80
2023/09/15 01:28:24;;;;;;;;;10.00;8.67;;;;;;;;5043699;28;45280;-81
2023/09/15 01:30:50;;;;;;;;;9.67;9.67;;;;;;;;5041802;28;45315;-81
2023/09/15 01:33:16;;;;;;;;;8.00;8.00;;;;;;;;5041590;28;45434;-81
2023/09/15 01:35:41;;;;;;;;;6.67;6.67;;;;;;;;5041479;28;45285;-81
2023/09/15 01:38:07;;;;;;;;;10.33;9.00;;;;;;;;5023467;28;45278;-81
2023/09/15 01:40:32;;;;;;;;;9.00;9.00;;;;;;;;5041781;28;45541;-81
2023/09/15 01:42:57;;;;;;;;;8.00;7.00;;;;;;;;5041553;28;45494;-81
2023/09/15 01:45:22;;;;;;;;;7.67;7.33;;;;;;;;5023391;28;47081;-81
2023/09/15 01:47:48;;;;;;;;;8.67;8.67;;;;;;;;5023391;28;45248;-81
2023/09/15 01:50:14;;;;;;;;;9.00;9.00;;;;;;;;5041502;28;45495;-81
2023/09/15 01:52:40;;;;;;;;;9.00;9.00;;;;;;;;5023263;28;47080;-81
2023/09/15 01:55:07;;;;;;;;;12.33;10.00;;;;;;;;5023357;28;47565;-81
2023/09/15 01:57:32;;;;;;;;;7.33;7.33;;;;;;;;5040932;28;45447;-81
2023/09/15 01:59:58;;;;;;;;;11.00;11.00;;;;;;;;5023477;28;45424;-80
2023/09/15 02:02:23;;;;;;;;;9.00;8.67;;;;;;;;5023387;28;47006;-81
2023/09/15 02:04:49;;;;;;;;;11.00;11.00;;;;;;;;5041205;28;45362;-80
2023/09/15 02:07:14;;;;;;;;;8.00;8.00;;;;;;;;5023101;28;45392;-81
2023/09/15 02:09:39;;;;;;;;;6.67;6.00;;;;;;;;5023278;28;45360;-81
2023/09/15 02:12:04;;;;;;;;;7.00;7.00;;;;;;;;5040559;28;45446;-81
2023/09/15 02:14:30;;;;;;;;;8.00;8.00;;;;;;;;5022697;28;45993;-82
2023/09/15 02:16:55;;;;;;;;;12.00;10.67;;;;;;;;5040483;28;45494;-81
2023/09/15 02:19:20;;;;;;;;;7.00;7.00;;;;;;;;5041149;28;45193;-81
2023/09/15 02:21:45;;;;;;;;;7.67;7.67;;;;;;;;5040648;28;45311;-81
2023/09/15 02:24:10;;;;;;;;;9.00;9.00;;;;;;;;5051685;28;46418;-81
2023/09/15 02:26:36;;;;;;;;;9.67;9.67;;;;;;;;5042070;28;45358;-81
2023/09/15 02:29:01;;;;;;;;;9.33;8.00;;;;;;;;5066495;28;45331;-81
2023/09/15 02:31:26;;;;;;;;;8.00;8.00;;;;;;;;5061981;28;46144;-81
2023/09/15 02:33:51;;;;;;;;;10.00;8.33;;;;;;;;5081100;28;45315;-81
2023/09/15 02:36:17;;;;;;;;;6.00;6.00;;;;;;;;5080972;28;45225;-81
2023/09/15 02:38:42;;;;;;;;;8.00;7.00;;;;;;;;5081396;28;45310;-81
2023/09/15 02:41:07;;;;;;;;;10.00;10.00;;;;;;;;5081056;28;45286;-81
2023/09/15 02:43:32;;;;;;;;;6.33;6.33;;;;;;;;5062410;28;47243;-81
2023/09/15 02:46:04;;;;;;;;;11.00;10.33;;;;;;;;5062810;28;45234;-81
2023/09/15 02:48:29;;;;;;;;;9.00;9.00;;;;;;;;5081197;28;45398;-81
2023/09/15 02:50:56;;;;;;;;;10.67;9.00;;;;;;;;5080493;28;45417;-81
2023/09/15 02:53:21;;;;;;;;;9.33;8.67;;;;;;;;5080904;28;46629;-81
2023/09/15 02:55:56;;;;;;;;;10.00;10.00;;;;;;;;5080802;28;45265;-81
2023/09/15 02:58:22;;;;;;;;;7.00;7.00;;;;;;;;5080849;28;45299;-81
2023/09/15 03:00:48;;;;;;;;;9.33;9.33;;;;;;;;5080403;28;45266;-81
2023/09/15 03:03:13;;;;;;;;;9.00;9.00;;;;;;;;5080763;28;45160;-81
2023/09/15 03:05:38;;;;;;;;;12.67;11.67;;;;;;;;5080538;28;45246;-80
2023/09/15 03:08:04;;;;;;;;;10.00;8.33;;;;;;;;5062221;28;45253;-80
2023/09/15 03:10:29;;;;;;;;;8.00;8.00;;;;;;;;5080808;28;45231;-81
2023/09/15 03:12:54;;;;;;;;;8.67;8.00;;;;;;;;5080523;28;45337;-80
2023/09/15 03:15:19;;;;;;;;;9.00;8.00;;;;;;;;5080664;28;45190;-81
2023/09/15 03:17:45;;;;;;;;;8.67;8.67;;;;;;;;5062212;28;45216;-81
2023/09/15 03:20:15;;;;;;;;;9.67;9.33;;;;;;;;5080407;28;45316;-81
2023/09/15 03:22:41;;;;;;;;;9.33;8.00;;;;;;;;5079189;28;46377;-81
2023/09/15 03:25:06;;;;;;;;;11.00;10.33;;;;;;;;5080409;28;45332;-81
2023/09/15 03:27:32;;;;;;;;;8.00;8.00;;;;;;;;5062072;28;45213;-81
2023/09/15 03:29:57;;;;;;;;;7.67;7.67;;;;;;;;5066126;28;45236;-81
2023/09/15 03:32:22;;;;;;;;;9.33;9.33;;;;;;;;5059908;28;46354;-81
2023/09/15 03:34:47;;;;;;;;;9.33;9.33;;;;;;;;5041694;28;45233;-81
2023/09/15 03:37:12;;;;;;;;;8.00;8.00;;;;;;;;5041573;28;45274;-81
2023/09/15 03:39:38;;;;;;;;;9.00;9.00;;;;;;;;5041730;28;47114;-81
2023/09/15 03:42:03;;;;;;;;;10.00;9.00;;;;;;;;5041707;28;47507;-81
2023/09/15 03:44:28;;;;;;;;;8.00;8.00;;;;;;;;5059310;28;45237;-81
2023/09/15 03:46:53;;;;;;;;;10.67;10.00;;;;;;;;5059816;28;45278;-80
2023/09/15 03:49:18;;;;;;;;;9.67;9.67;;;;;;;;5041860;28;47320;-81
2023/09/15 03:51:44;;;;;;;;;12.00;10.33;;;;;;;;5059429;28;45191;-81
2023/09/15 03:54:09;;;;;;;;;9.33;9.33;;;;;;;;5059710;28;45214;-81
2023/09/15 03:56:34;;;;;;;;;11.67;11.67;;;;;;;;5059838;28;45354;-81
2023/09/15 03:59:00;;;;;;;;;9.67;9.67;;;;;;;;5059427;28;45320;-80
2023/09/15 04:01:25;;;;;;;;;9.67;9.67;;;;;;;;5040964;28;47207;-81
2023/09/15 04:03:50;;;;;;;;;8.00;8.00;;;;;;;;5041598;28;45325;-81
2023/09/15 04:06:18;;;;;;;;;12.67;11.67;;;;;;;;5041044;28;45304;-81
2023/09/15 04:08:45;;;;;;;;;10.67;10.67;;;;;;;;5059589;28;45915;-80
2023/09/15 04:11:10;;;;;;;;;10.67;8.67;;;;;;;;5059565;28;45277;-81
2023/09/15 04:13:36;;;;;;;;;10.00;10.00;;;;;;;;5059408;28;45239;-81
2023/09/15 04:16:01;;;;;;;;;13.00;11.67;;;;;;;;5059701;28;45283;-80
2023/09/15 04:18:26;;;;;;;;;9.33;8.67;;;;;;;;5042452;28;47230;-81
2023/09/15 04:20:53;;;;;;;;;10.33;10.33;;;;;;;;5059596;28;45247;-81
2023/09/15 04:23:18;;;;;;;;;10.00;8.67;;;;;;;;5059414;28;45203;-81
2023/09/15 04:25:44;;;;;;;;;10.00;10.00;;;;;;;;5059306;28;45541;-81
2023/09/15 04:28:09;;;;;;;;;11.33;9.33;;;;;;;;5059301;28;45133;-81
2023/09/15 04:30:34;;;;;;;;;9.33;9.00;;;;;;;;5078097;28;46323;-81
2023/09/15 04:32:59;;;;;;;;;11.33;10.33;;;;;;;;5079609;28;45265;-81
2023/09/15 04:35:25;;;;;;;;;11.33;11.33;;;;;;;;5082411;28;45212;-80
2023/09/15 04:37:50;;;;;;;;;11.00;10.67;;;;;;;;5083123;28;45627;-81
2023/09/15 04:40:15;;;;;;;;;8.67;8.67;;;;;;;;5082943;28;45382;-81
2023/09/15 04:42:40;;;;;;;;;9.33;9.33;;;;;;;;5083011;28;45298;-81
2023/09/15 04:45:06;;;;;;;;;11.67;10.00;;;;;;;;5082884;28;45339;-81
2023/09/15 04:47:33;;;;;;;;;11.00;10.33;;;;;;;;5065399;28;46020;-81
2023/09/15 04:49:58;;;;;;;;;11.67;11.67;;;;;;;;5084157;28;46128;-81
2023/09/15 04:52:23;;;;;;;;;9.67;9.67;;;;;;;;5071749;28;45333;-81
2023/09/15 04:54:49;;;;;;;;;10.00;10.00;;;;;;;;5043646;28;45348;-81
2023/09/15 04:57:14;;;;;;;;;9.33;8.00;;;;;;;;5062066;28;45258;-81
2023/09/15 04:59:39;;;;;;;;;9.00;9.00;;;;;;;;5062159;28;45362;-81
2023/09/15 05:02:06;;;;;;;;;10.00;9.67;;;;;;;;5044220;28;45747;-81
2023/09/15 05:04:32;;;;;;;;;10.00;10.00;;;;;;;;5062260;28;45280;-82
2023/09/15 05:06:57;;;;;;;;;13.00;12.33;;;;;;;;5043764;28;45881;-81
2023/09/15 05:09:22;;;;;;;;;10.67;10.00;;;;;;;;5060791;28;46291;-82
2023/09/15 05:11:47;;;;;;;;;11.33;10.33;;;;;;;;5061549;28;45379;-82
2023/09/15 05:14:12;;;;;;;;;10.33;9.00;;;;;;;;5060768;28;45252;-81
2023/09/15 05:16:38;;;;;;;;;9.00;9.00;;;;;;;;5061140;28;45426;-83
2023/09/15 05:19:03;;;;;;;;;10.00;10.00;;;;;;;;5062447;28;46293;-80
2023/09/15 05:21:28;;;;;;;;;9.33;9.33;;;;;;;;5062555;28;45235;-80
2023/09/15 05:23:53;;;;;;;;;10.00;10.00;;;;;;;;5063268;28;45202;-82
2023/09/15 05:26:18;;;;;;;;;11.00;11.00;;;;;;;;5061322;28;45272;-82
2023/09/15 05:28:44;;;;;;;;;10.00;9.33;;;;;;;;5061075;28;45273;-82
2023/09/15 05:31:11;;;;;;;;;9.00;9.00;;;;;;;;5061952;28;45318;-82
2023/09/15 05:33:37;;;;;;;;;10.00;8.33;;;;;;;;5062176;28;45389;-82
2023/09/15 05:36:02;;;;;;;;;11.00;11.00;;;;;;;;5044550;28;46175;-82
2023/09/15 05:38:27;;;;;;;;;11.33;9.33;;;;;;;;5070864;28;45550;-82
2023/09/15 05:40:52;;;;;;;;;11.33;11.33;;;;;;;;5050728;28;45614;-81
2023/09/15 05:43:18;;;;;;;;;11.33;9.67;;;;;;;;5061896;28;45309;-81
2023/09/15 05:45:44;;;;;;;;;10.67;9.67;;;;;;;;5042496;28;47443;-82
2023/09/15 05:48:12;;;;;;;;;11.00;10.00;;;;;;;;5062096;28;46343;-80
2023/09/15 05:50:38;;;;;;;;;10.00;10.00;;;;;;;;5063216;28;45340;-83
2023/09/15 05:53:03;;;;;;;;;12.00;11.00;;;;;;;;5063781;28;45220;-81
2023/09/15 05:55:28;;;;;;;;;4.33;4.00;;;;;;;;5045480;28;46019;-83
2023/09/15 05:57:53;;;;;;;;;10.00;9.67;;;;;;;;5062214;28;45370;-83
2023/09/15 06:00:19;;;;;;;;;10.33;10.33;;;;;;;;5062597;28;45256;-83
2023/09/15 06:02:44;;;;;;;;;10.33;10.33;;;;;;;;5063844;28;45286;-83
2023/09/15 06:05:09;;;;;;;;;8.67;8.67;;;;;;;;5047188;28;47396;-83
2023/09/15 06:07:34;;;;;;;;;12.00;11.00;;;;;;;;5065252;28;45282;-83
2023/09/15 06:09:59;;;;;;;;;10.67;10.67;;;;;;;;5066577;28;45390;-81
2023/09/15 06:12:24;;;;;;;;;8.67;8.67;;;;;;;;5091921;28;45162;-83
2023/09/15 06:14:50;;;;;;;;;12.00;12.00;;;;;;;;5084512;28;45418;-85
2023/09/15 06:17:15;;;;;;;;;9.33;9.33;;;;;;;;5089044;28;46100;-85
2023/09/15 06:19:40;;;;;;;;;11.00;11.00;;;;;;;;5085692;28;45328;-81
2023/09/15 06:22:06;;;;;;;;;8.33;8.33;;;;;;;;5084288;28;45336;-83
2023/09/15 06:24:31;;;;;;;;;12.00;10.33;;;;;;;;5088469;28;45289;-83
2023/09/15 06:26:56;;;;;;;;;10.33;10.33;;;;;;;;5066969;28;48241;-81
2023/09/15 06:29:21;;;;;;;;;10.33;9.00;;;;;;;;5067180;28;45242;-82
2023/09/15 06:31:47;;;;;;;;;16.00;13.00;;;;;;;;5070344;28;45567;-81
2023/09/15 06:34:12;;;;;;;;;11.33;11.33;;;;;;;;5071674;28;45586;-85
2023/09/15 06:36:39;;;;;;;;;10.00;10.00;;;;;;;;5057585;28;47299;-86
2023/09/15 06:39:06;;;;;;;;;12.67;12.33;;;;;;;;5068157;28;45588;-83
2023/09/15 06:41:32;;;;;;;;;13.00;13.00;;;;;;;;5042407;28;45257;-85
2023/09/15 06:43:57;;;;;;;;;11.67;11.00;;;;;;;;5061353;28;45255;-83
2023/09/15 06:46:22;;;;;;;;;12.00;12.00;;;;;;;;5061241;28;46584;-80
2023/09/15 06:48:48;;;;;;;;;11.33;11.00;;;;;;;;5060589;28;45303;-82
2023/09/15 06:51:13;;;;;;;;;14.00;14.00;;;;;;;;5058370;28;45264;-85
2023/09/15 06:53:38;;;;;;;;;12.33;12.33;;;;;;;;5060398;28;45212;-81
2023/09/15 06:56:03;;;;;;;;;14.67;13.00;;;;;;;;5042179;28;47590;-82
2023/09/15 06:58:29;;;;;;;;;7.00;6.67;;;;;;;;5060454;28;45400;-83
2023/09/15 07:00:55;;;;;;;;;13.00;12.33;;;;;;;;5060729;28;45189;-86
2023/09/15 07:03:20;;;;;;;;;22.33;21.00;;;;;;;;5061148;28;45136;-84
2023/09/15 07:05:45;;;;;;;;;16.00;13.33;;;;;;;;5059854;28;46088;-81
2023/09/15 07:08:10;;;;;;;;;16.67;16.67;;;;;;;;5059605;28;45437;-85
2023/09/15 07:10:35;;;;;;;;;19.00;17.33;;;;;;;;5060554;28;45784;-87
2023/09/15 07:13:00;;;;;;;;;20.00;18.67;;;;;;;;5049094;28;46025;-89
2023/09/15 07:15:28;;;;;;;;;30.33;25.00;;;;;;;;5061782;28;45318;-89
2023/09/15 07:17:54;;;;;;;;;24.33;21.33;;;;;;;;5061282;28;45326;-87
2023/09/15 07:20:19;;;;;;;;;15.33;14.67;;;;;;;;5059988;28;45391;-86
2023/09/15 07:22:45;;;;;;;;;15.67;15.00;;;;;;;;5060079;28;45395;-86
2023/09/15 07:25:10;;;;;;;;;17.33;16.67;;;;;;;;5060123;28;45983;-84
2023/09/15 07:27:36;;;;;;;;;13.67;13.67;;;;;;;;5060090;28;45465;-86
2023/09/15 07:30:01;;;;;;;;;13.67;13.67;;;;;;;;5060378;28;45208;-83
2023/09/15 07:32:26;;;;;;;;;12.67;12.00;;;;;;;;5060124;28;45178;-82
2023/09/15 07:34:51;;;;;;;;;9.00;9.00;;;;;;;;5060010;28;45217;-84
2023/09/15 07:37:16;;;;;;;;;14.67;11.33;;;;;;;;5059605;28;45336;-82
2023/09/15 07:39:42;;;;;;;;;10.33;10.00;;;;;;;;5042036;28;45241;-79
2023/09/15 07:42:08;;;;;;;;;10.00;10.00;;;;;;;;5059868;28;45414;-80
2023/09/15 07:44:34;;;;;;;;;8.00;7.33;;;;;;;;5059497;28;45258;-79
2023/09/15 07:46:59;;;;;;;;;10.67;9.33;;;;;;;;5041768;28;45635;-82
2023/09/15 07:49:24;;;;;;;;;10.67;10.00;;;;;;;;5060117;28;45514;-81
2023/09/15 07:51:50;;;;;;;;;7.33;7.33;;;;;;;;5041347;28;45749;-82
2023/09/15 07:54:15;;;;;;;;;10.00;9.67;;;;;;;;5059547;28;45357;-80
2023/09/15 07:56:41;;;;;;;;;11.00;10.00;;;;;;;;5041311;28;45270;-78
2023/09/15 07:59:07;;;;;;;;;10.67;9.33;;;;;;;;5059560;28;45611;-77
2023/09/15 08:01:32;;;;;;;;;11.67;10.00;;;;;;;;5059514;28;45399;-80
2023/09/15 08:03:58;;;;;;;;;10.00;10.00;;;;;;;;5059311;28;45539;-79
2023/09/15 08:06:23;;;;;;;;;9.67;9.00;;;;;;;;5059190;28;45404;-78
2023/09/15 08:08:48;;;;;;;;;9.00;9.00;;;;;;;;5058925;28;45385;-84
2023/09/15 08:11:13;;;;;;;;;8.33;8.33;;;;;;;;5059535;28;45490;-79
2023/09/15 08:13:38;;;;;;;;;6.00;6.00;;;;;;;;5041403;28;48250;-80
2023/09/15 08:16:04;;;;;;;;;11.33;9.67;;;;;;;;5059383;28;45375;-84
2023/09/15 08:18:29;;;;;;;;;8.00;8.00;;;;;;;;5041362;28;45373;-81
2023/09/15 08:20:54;;;;;;;;;9.33;8.33;;;;;;;;5041316;28;46046;-79
2023/09/15 08:23:19;;;;;;;;;8.67;8.00;;;;;;;;5059093;28;45303;-82
2023/09/15 08:25:44;;;;;;;;;8.00;7.33;;;;;;;;5059226;28;45359;-81
2023/09/15 08:28:10;;;;;;;;;6.00;6.00;;;;;;;;5041434;28;45319;-80
2023/09/15 08:30:38;;;;;;;;;9.00;9.00;;;;;;;;5060171;28;46338;-82
2023/09/15 08:33:03;;;;;;;;;9.00;9.00;;;;;;;;5073006;28;46115;-80
2023/09/15 08:35:29;;;;;;;;;8.00;8.00;;;;;;;;5076079;28;45321;-80
2023/09/15 08:37:54;;;;;;;;;9.00;9.00;;;;;;;;5072918;28;45315;-79
2023/09/15 08:40:19;;;;;;;;;9.33;9.00;;;;;;;;5079075;28;45171;-79
2023/09/15 08:42:45;;;;;;;;;11.00;9.00;;;;;;;;5057963;28;46977;-81
2023/09/15 08:45:10;;;;;;;;;9.67;9.33;;;;;;;;5064581;28;45362;-80
2023/09/15 08:47:37;;;;;;;;;10.33;10.33;;;;;;;;5048000;28;45393;-79
2023/09/15 08:50:03;;;;;;;;;7.00;7.00;;;;;;;;5040698;28;47501;-79
2023/09/15 08:52:29;;;;;;;;;10.00;7.00;;;;;;;;5058362;28;45399;-81
2023/09/15 08:54:54;;;;;;;;;7.33;7.33;;;;;;;;5058983;28;45452;-78
2023/09/15 08:57:20;;;;;;;;;6.00;6.00;;;;;;;;5040814;28;45382;-79
2023/09/15 08:59:46;;;;;;;;;6.00;6.00;;;;;;;;5058743;28;45466;-81
2023/09/15 09:02:12;;;;;;;;;6.67;6.33;;;;;;;;5056114;28;45219;-80
2023/09/15 09:04:37;;;;;;;;;7.33;7.33;;;;;;;;5044007;28;45434;-81
2023/09/15 09:07:03;;;;;;;;;5.67;5.67;;;;;;;;5020064;28;45338;-80
2023/09/15 09:09:29;;;;;;;;;8.33;8.33;;;;;;;;5039131;28;45526;-79
2023/09/15 09:11:54;;;;;;;;;8.00;8.00;;;;;;;;5020545;28;47076;-83
2023/09/15 09:14:19;;;;;;;;;7.00;7.00;;;;;;;;5039439;28;45345;-80
2023/09/15 09:16:44;;;;;;;;;5.67;5.67;;;;;;;;5020238;28;45347;-80
2023/09/15 09:19:10;;;;;;;;;7.00;7.00;;;;;;;;5037580;28;45703;-82
2023/09/15 09:21:35;;;;;;;;;8.33;8.33;;;;;;;;5031885;28;47098;-78
2023/09/15 09:24:01;;;;;;;;;9.67;8.33;;;;;;;;5061237;28;45455;-78
2023/09/15 09:26:26;;;;;;;;;9.00;9.00;;;;;;;;5061848;28;45410;-81
2023/09/15 09:28:57;;;;;;;;;9.67;8.33;;;;;;;;5065674;28;45537;-80
2023/09/15 09:31:24;;;;;;;;;6.00;6.00;;;;;;;;5081566;28;46274;-78
2023/09/15 09:33:49;;;;;;;;;8.67;8.67;;;;;;;;5080506;28;45361;-79
2023/09/15 09:36:14;;;;;;;;;8.00;7.50;;;;;;;;5063194;28;45446;-82
2023/09/15 09:38:40;;;;;;;;;9.25;8.50;;;;;;;;5082121;28;45385;-80
2023/09/15 09:41:06;;;;;;;;;7.33;6.67;;;;;;;;5081594;28;45346;-80
2023/09/15 09:43:33;;;;;;;;;6.33;6.33;;;;;;;;5064614;28;45659;-87
2023/09/15 09:45:58;;;;;;;;;7.00;7.00;;;;;;;;5043169;28;45360;-83
2023/09/15 09:48:26;;;;;;;;;7.00;6.00;;;;;;;;5063131;28;45832;-84
2023/09/15 09:50:52;;;;;;;;;7.25;6.75;;;;;;;;5078969;28;45519;-83
2023/09/15 09:53:26;;;;;;;;;8.00;7.75;;;;;;;;5045985;28;45368;-81
2023/09/15 09:55:52;;;;;;;;;7.00;7.00;;;;;;;;5040759;28;45529;-80
2023/09/15 09:58:17;;;;;;;;;7.25;7.25;;;;;;;;5024919;28;45585;-84
2023/09/15 10:00:47;;;;;;;;;6.67;6.67;;;;;;;;5040354;28;45272;-85
2023/09/15 10:03:12;;;;;;;;;6.67;6.67;;;;;;;;5039951;28;45390;-80
2023/09/15 10:05:37;;;;;;;;;6.00;6.00;;;;;;;;5081136;28;45333;-81
2023/09/15 10:08:03;;;;;;;;;8.33;8.33;;;;;;;;5081406;28;45350;-81
2023/09/15 10:10:29;;;;;;;;;6.00;6.00;;;;;;;;5062967;28;47042;-80
2023/09/15 10:12:54;;;;;;;;;7.75;7.75;;;;;;;;5063024;28;45403;-81
2023/09/15 10:15:22;;;;;;;;;6.75;6.75;;;;;;;;5081948;28;45297;-80
2023/09/15 10:17:47;;;;;;;;;7.00;7.00;;;;;;;;5063403;28;47008;-79
2023/09/15 10:20:12;;;;;;;;;7.00;6.25;;;;;;;;5083220;28;45216;-78
2023/09/15 10:22:37;;;;;;;;;5.00;5.00;;;;;;;;5086249;28;45200;-77
2023/09/15 10:25:03;;;;;;;;;4.50;4.50;;;;;;;;5082989;28;45200;-79
2023/09/15 10:27:29;;;;;;;;;6.25;6.25;;;;;;;;5063424;28;46528;-80
2023/09/15 10:29:54;;;;;;;;;5.25;5.25;;;;;;;;5081532;28;45206;-79
2023/09/15 10:32:20;;;;;;;;;7.00;7.00;;;;;;;;5080922;28;45162;-79
2023/09/15 10:34:47;;;;;;;;;6.50;6.50;;;;;;;;5081991;28;45259;-80
2023/09/15 10:37:13;;;;;;;;;5.00;5.00;;;;;;;;5082402;28;45389;-80
2023/09/15 10:39:39;;;;;;;;;8.25;8.25;;;;;;;;5057226;28;47188;-80
2023/09/15 10:42:08;;;;;;;;;5.75;5.75;;;;;;;;5060798;28;45396;-81
2023/09/15 10:44:33;;;;;;;;;5.25;5.00;;;;;;;;5060768;28;45425;-80
2023/09/15 10:46:59;;;;;;;;;6.50;6.50;;;;;;;;5060785;28;45274;-79
2023/09/15 10:49:24;;;;;;;;;5.50;5.50;;;;;;;;5042282;28;48432;-83
2023/09/15 10:51:53;;;;;;;;;5.25;5.25;;;;;;;;5060741;28;45149;-82
2023/09/15 10:54:19;;;;;;;;;4.75;4.75;;;;;;;;5045828;28;45371;-79
2023/09/15 10:56:45;;;;;;;;;6.25;6.25;;;;;;;;5022593;28;46054;-78
2023/09/15 10:59:10;;;;;;;;;6.25;6.25;;;;;;;;5039971;28;46369;-79
2023/09/15 11:01:35;;;;;;;;;7.00;7.00;;;;;;;;5049818;28;45324;-79
2023/09/15 11:04:02;;;;;;;;;7.00;7.00;;;;;;;;5060088;28;45327;-79
2023/09/15 11:06:29;;;;;;;;;2.25;2.25;;;;;;;;5041389;28;46228;-79
2023/09/15 11:08:54;;;;;;;;;5.00;5.00;;;;;;;;5062847;28;45593;-80
2023/09/15 11:11:19;;;;;;;;;6.50;6.50;;;;;;;;5048619;28;46228;-79
2023/09/15 11:13:44;;;;;;;;;5.00;5.00;;;;;;;;5050249;28;45317;-78
2023/09/15 11:16:10;;;;;;;;;6.00;6.00;;;;;;;;5067666;28;45343;-79
2023/09/15 11:18:35;;;;;;;;;6.00;6.00;;;;;;;;5066761;28;45279;-78
2023/09/15 11:21:01;;;;;;;;;6.00;5.00;;;;;;;;5068155;28;45484;-79
2023/09/15 11:23:26;;;;;;;;;5.50;5.50;;;;;;;;5055535;28;45371;-78
2023/09/15 11:25:58;;;;;;;;;6.50;6.00;;;;;;;;5038919;28;45328;-79
2023/09/15 11:28:23;;;;;;;;;4.75;4.75;;;;;;;;5065733;28;46557;-79
2023/09/15 11:30:49;;;;;;;;;4.75;4.75;;;;;;;;5050806;28;45549;-78
2023/09/15 11:33:14;;;;;;;;;5.25;5.25;;;;;;;;5066572;28;45484;-78
2023/09/15 11:35:39;;;;;;;;;4.75;4.75;;;;;;;;5063694;28;45551;-79
2023/09/15 11:38:04;;;;;;;;;5.00;5.00;;;;;;;;5050270;28;47376;-77
2023/09/15 11:40:30;;;;;;;;;4.75;4.75;;;;;;;;5068502;28;45347;-77
2023/09/15 11:42:56;;;;;;;;;5.25;5.25;;;;;;;;5066360;28;45925;-80
2023/09/15 11:45:25;;;;;;;;;4.75;4.75;;;;;;;;5042251;28;46227;-77
2023/09/15 11:47:50;;;;;;;;;4.75;4.75;;;;;;;;5063964;28;46291;-78
2023/09/15 11:50:15;;;;;;;;;5.00;5.00;;;;;;;;5063433;28;45307;-81
2023/09/15 11:52:41;;;;;;;;;4.00;4.00;;;;;;;;5031627;28;45370;-78
2023/09/15 11:55:20;;;;;;;;;5.00;5.00;;;;;;;;5019343;28;46262;-80
2023/09/15 11:57:45;;;;;;;;;7.00;5.00;;;;;;;;5044784;28;47030;-79
2023/09/15 12:00:13;;;;;;;;;4.50;4.50;;;;;;;;5058480;28;45498;-80
2023/09/15 12:02:38;;;;;;;;;4.00;4.00;;;;;;;;5059283;28;45368;-77
2023/09/15 12:05:03;;;;;;;;;5.00;5.00;;;;;;;;5038422;28;45808;-78
2023/09/15 12:07:29;;;;;;;;;3.75;3.75;;;;;;;;5057575;28;46081;-79
2023/09/15 12:09:54;;;;;;;;;3.75;3.75;;;;;;;;5058501;28;45394;-79
2023/09/15 12:12:20;;;;;;;;;5.75;5.50;;;;;;;;5059303;28;45390;-76
2023/09/15 12:14:46;;;;;;;;;4.50;4.50;;;;;;;;5059101;28;45419;-78
2023/09/15 12:17:12;;;;;;;;;5.75;5.00;;;;;;;;5040011;28;47331;-79
2023/09/15 12:19:37;;;;;;;;;4.00;3.75;;;;;;;;5039481;28;45421;-78
2023/09/15 12:22:02;;;;;;;;;5.00;4.25;;;;;;;;5040640;28;45345;-79
2023/09/15 12:24:28;;;;;;;;;5.25;3.75;;;;;;;;5058779;28;45536;-78
2023/09/15 12:26:54;;;;;;;;;4.75;3.00;;;;;;;;5061187;28;47289;-78
2023/09/15 12:29:21;;;;;;;;;4.75;4.25;;;;;;;;5069926;28;45278;-76
2023/09/15 12:31:47;;;;;;;;;4.25;3.00;;;;;;;;5068187;28;45418;-77
2023/09/15 12:34:19;;;;;;;;;3.25;3.25;;;;;;;;5067497;28;45743;-77
2023/09/15 12:36:44;;;;;;;;;5.50;5.50;;;;;;;;5068010;28;45969;-76
2023/09/15 12:39:10;;;;;;;;;4.00;4.00;;;;;;;;5068768;28;45343;-76
2023/09/15 12:41:35;;;;;;;;;3.00;3.00;;;;;;;;5067697;28;45275;-77
2023/09/15 12:44:00;;;;;;;;;3.75;3.75;;;;;;;;5068526;28;45470;-76
2023/09/15 12:46:26;;;;;;;;;5.25;5.00;;;;;;;;5067970;28;45347;-77
2023/09/15 12:48:51;;;;;;;;;4.25;4.25;;;;;;;;5066992;28;45551;-77
2023/09/15 12:51:17;;;;;;;;;2.50;2.50;;;;;;;;5069156;28;45445;-77
2023/09/15 12:53:42;;;;;;;;;4.75;4.50;;;;;;;;5067729;28;45464;-78
2023/09/15 12:56:07;;;;;;;;;4.00;4.00;;;;;;;;5052056;28;48308;-76
2023/09/15 12:58:32;;;;;;;;;6.50;4.50;;;;;;;;5071292;28;45530;-78
2023/09/15 13:00:57;;;;;;;;;5.25;4.75;;;;;;;;5072936;28;44798;-76
2023/09/15 13:03:23;;;;;;;;;4.50;4.50;;;;;;;;5069196;28;45427;-76
2023/09/15 13:05:49;;;;;;;;;1.00;1.00;;;;;;;;5071427;28;46034;-75
2023/09/15 13:08:14;;;;;;;;;4.25;4.00;;;;;;;;5071037;28;45367;-76
2023/09/15 13:10:40;;;;;;;;;4.50;4.50;;;;;;;;5057613;28;45399;-77
2023/09/15 13:13:05;;;;;;;;;4.25;4.25;;;;;;;;5053019;28;46427;-77
2023/09/15 13:15:31;;;;;;;;;3.50;3.50;;;;;;;;5070025;28;45331;-77
2023/09/15 13:17:56;;;;;;;;;3.00;3.00;;;;;;;;5072172;28;45338;-76
2023/09/15 13:20:22;;;;;;;;;2.75;2.75;;;;;;;;5070197;28;45402;-77
2023/09/15 13:22:47;;;;;;;;;4.25;3.25;;;;;;;;5052787;28;46996;-79
2023/09/15 13:25:13;;;;;;;;;2.00;2.00;;;;;;;;5072287;28;45968;-78
2023/09/15 13:27:42;;;;;;;;;3.25;3.25;;;;;;;;5069587;28;45202;-76
2023/09/15 13:30:16;;;;;;;;;5.25;5.25;;;;;;;;5054543;28;45490;-79
2023/09/15 13:32:43;;;;;;;;;5.00;4.50;;;;;;;;5068286;28;45399;-77
2023/09/15 13:35:09;;;;;;;;;5.75;5.25;;;;;;;;5067962;28;45429;-78
2023/09/15 13:37:34;;;;;;;;;5.25;5.25;;;;;;;;5067806;28;45427;-77
2023/09/15 13:40:00;;;;;;;;;4.75;4.75;;;;;;;;5053941;28;45373;-76
2023/09/15 13:42:43;;;;;;;;;7.00;6.50;;;;;;;;5071071;28;45422;-80
2023/09/15 13:45:11;;;;;;;;;4.50;4.50;;;;;;;;5069645;28;46380;-79
2023/09/15 13:47:36;;;;;;;;;5.50;5.50;;;;;;;;5070000;28;45284;-76
2023/09/15 13:50:02;;;;;;;;;4.00;3.25;;;;;;;;5071326;28;45399;-76
2023/09/15 13:52:28;;;;;;;;;4.00;4.00;;;;;;;;5053004;28;46337;-77
2023/09/15 13:54:54;;;;;;;;;5.50;5.50;;;;;;;;5051701;28;47480;-77
2023/09/15 13:57:19;;;;;;;;;5.25;5.25;;;;;;;;5053189;28;45412;-77
2023/09/15 13:59:45;;;;;;;;;2.75;2.75;;;;;;;;5060138;28;45365;-78
2023/09/15 14:02:10;;;;;;;;;4.75;4.75;;;;;;;;5060722;28;45895;-78
2023/09/15 14:04:35;;;;;;;;;5.50;4.00;;;;;;;;5041867;28;47157;-77
2023/09/15 14:07:04;;;;;;;;;4.75;4.75;;;;;;;;5041100;28;45779;-77
2023/09/15 14:09:29;;;;;;;;;5.50;4.50;;;;;;;;5068433;28;45521;-77
2023/09/15 14:11:55;;;;;;;;;3.00;3.00;;;;;;;;5071072;28;45371;-78
2023/09/15 14:14:20;;;;;;;;;5.00;5.00;;;;;;;;5062956;28;45463;-78
2023/09/15 14:16:45;;;;;;;;;3.25;3.00;;;;;;;;5059973;28;45288;-78
2023/09/15 14:19:10;;;;;;;;;4.00;3.75;;;;;;;;5059328;28;45665;-79
2023/09/15 14:21:36;;;;;;;;;3.75;3.75;;;;;;;;5060298;28;45346;-78
2023/09/15 14:24:01;;;;;;;;;3.25;3.25;;;;;;;;5053506;28;47297;-78
2023/09/15 14:26:26;;;;;;;;;4.00;4.00;;;;;;;;5039489;28;45290;-77
2023/09/15 14:28:52;;;;;;;;;5.50;5.50;;;;;;;;5037682;28;45285;-79